TimeEDT,TemperatureF,Dew PointF,Humidity,Sea Level PressureIn,VisibilityMPH,Wind Direction,Wind SpeedMPH,Gust SpeedMPH,PrecipitationIn,Events,Conditions,WindDirDegrees,DateUTC
12:15 AM,62.6,60.8,94,29.91,7.0,South,9.2,-,N/A,,Mostly Cloudy,190,2012-10-14 04:15:00
12:35 AM,62.6,60.8,94,29.90,7.0,South,9.2,-,N/A,,Mostly Cloudy,190,2012-10-14 04:35:00
1:15 AM,62.6,60.8,94,29.88,10.0,South,10.4,-,N/A,,Mostly Cloudy,190,2012-10-14 05:15:00
1:35 AM,62.6,60.8,94,29.88,10.0,South,12.7,-,N/A,,Mostly Cloudy,180,2012-10-14 05:35:00
1:55 AM,62.6,60.8,94,29.88,10.0,South,9.2,-,N/A,,Scattered Clouds,170,2012-10-14 05:55:00
2:15 AM,62.6,60.8,94,29.87,10.0,South,10.4,-,N/A,,Clear,170,2012-10-14 06:15:00
2:35 AM,62.6,60.8,94,29.87,10.0,South,9.2,-,N/A,,Clear,180,2012-10-14 06:35:00
2:55 AM,62.6,60.8,94,29.86,10.0,South,10.4,-,N/A,,Clear,180,2012-10-14 06:55:00
3:15 AM,62.6,60.8,94,29.86,10.0,South,10.4,-,N/A,,Clear,180,2012-10-14 07:15:00
3:35 AM,64.4,60.8,88,29.85,10.0,South,11.5,-,N/A,,Mostly Cloudy,180,2012-10-14 07:35:00
3:55 AM,64.4,60.8,88,29.84,10.0,South,12.7,-,N/A,,Overcast,190,2012-10-14 07:55:00
4:15 AM,64.4,60.8,88,29.83,10.0,South,12.7,-,N/A,,Overcast,180,2012-10-14 08:15:00
4:35 AM,64.4,60.8,88,29.83,10.0,South,13.8,18.4,N/A,,Overcast,180,2012-10-14 08:35:00
4:55 AM,64.4,60.8,88,29.83,10.0,South,12.7,-,N/A,,Overcast,180,2012-10-14 08:55:00
5:15 AM,64.4,60.8,88,29.82,10.0,South,12.7,-,N/A,,Overcast,170,2012-10-14 09:15:00
5:35 AM,64.4,60.8,88,29.82,10.0,South,12.7,-,N/A,,Scattered Clouds,170,2012-10-14 09:35:00
5:55 AM,64.4,60.8,88,29.81,10.0,South,12.7,-,N/A,,Mostly Cloudy,170,2012-10-14 09:55:00
6:15 AM,64.4,60.8,88,29.80,10.0,South,13.8,-,N/A,,Overcast,180,2012-10-14 10:15:00
6:35 AM,64.4,60.8,88,29.79,10.0,South,13.8,-,N/A,,Overcast,170,2012-10-14 10:35:00
7:15 AM,64.4,60.8,88,29.77,10.0,SSE,13.8,18.4,N/A,,Overcast,160,2012-10-14 11:15:00
7:35 AM,66.2,60.8,83,29.76,10.0,South,11.5,17.3,N/A,,Overcast,190,2012-10-14 11:35:00
7:55 AM,66.2,60.8,83,29.75,10.0,South,18.4,26.5,N/A,,Overcast,190,2012-10-14 11:55:00
8:15 AM,66.2,60.8,83,29.74,10.0,South,17.3,23.0,N/A,,Overcast,180,2012-10-14 12:15:00
8:35 AM,66.2,60.8,83,29.73,10.0,South,18.4,24.2,N/A,,Overcast,180,2012-10-14 12:35:00
8:55 AM,66.2,60.8,83,29.73,10.0,South,18.4,24.2,N/A,,Overcast,180,2012-10-14 12:55:00
9:15 AM,68.0,60.8,78,29.71,10.0,South,20.7,31.1,N/A,,Overcast,170,2012-10-14 13:15:00
9:35 AM,68.0,59.0,73,29.70,10.0,South,24.2,38.0,N/A,,Overcast,190,2012-10-14 13:35:00
9:55 AM,66.2,60.8,83,29.68,10.0,South,21.9,35.7,N/A,,Overcast,180,2012-10-14 13:55:00
10:15 AM,66.2,60.8,83,29.67,10.0,South,23.0,34.5,N/A,,Overcast,190,2012-10-14 14:15:00
10:35 AM,66.2,60.8,83,29.68,10.0,South,23.0,36.8,N/A,,Mostly Cloudy,190,2012-10-14 14:35:00
10:55 AM,68.0,60.8,78,29.69,10.0,SSW,20.7,31.1,N/A,,Overcast,200,2012-10-14 14:55:00
11:15 AM,68.0,60.8,78,29.69,10.0,SSW,26.5,33.4,N/A,,Overcast,200,2012-10-14 15:15:00
11:35 AM,68.0,60.8,78,29.70,10.0,SSW,24.2,33.4,N/A,,Overcast,200,2012-10-14 15:35:00
11:55 AM,69.8,60.8,73,29.69,10.0,SSW,18.4,25.3,N/A,,Overcast,200,2012-10-14 15:55:00
12:15 PM,68.0,59.0,73,29.69,10.0,SSW,19.6,27.6,N/A,Rain,Light Rain,200,2012-10-14 16:15:00
12:35 PM,66.2,60.8,83,29.68,7.0,SSW,20.7,25.3,0.01,Rain,Rain,200,2012-10-14 16:35:00
12:55 PM,68.0,60.8,78,29.67,10.0,SSW,20.7,28.8,0.01,Rain,Light Rain,200,2012-10-14 16:55:00
1:15 PM,69.8,60.8,73,29.66,10.0,SSW,21.9,33.4,N/A,,Overcast,200,2012-10-14 17:15:00
1:35 PM,69.8,60.8,73,29.66,10.0,SSW,26.5,31.1,N/A,,Mostly Cloudy,210,2012-10-14 17:35:00
1:55 PM,68.0,60.8,78,29.65,10.0,SSW,19.6,32.2,N/A,Rain,Light Rain,210,2012-10-14 17:55:00
2:15 PM,69.8,59.0,68,29.63,10.0,SSW,25.3,32.2,N/A,,Overcast,210,2012-10-14 18:15:00
2:35 PM,69.8,57.2,64,29.61,10.0,SW,28.8,36.8,N/A,,Mostly Cloudy,220,2012-10-14 18:35:00
2:55 PM,71.6,57.2,60,29.60,10.0,SW,25.3,40.3,N/A,,Mostly Cloudy,220,2012-10-14 18:55:00
3:15 PM,69.8,57.2,64,29.59,10.0,SW,23.0,32.2,N/A,,Overcast,220,2012-10-14 19:15:00
3:35 PM,71.6,55.4,57,29.59,10.0,SSW,24.2,36.8,N/A,,Mostly Cloudy,210,2012-10-14 19:35:00
3:55 PM,71.6,55.4,57,29.59,10.0,SW,26.5,34.5,N/A,,Mostly Cloudy,220,2012-10-14 19:55:00
4:15 PM,69.8,55.4,60,29.59,10.0,SSW,20.7,32.2,N/A,,Overcast,210,2012-10-14 20:15:00
4:35 PM,69.8,53.6,56,29.58,10.0,SSW,24.2,32.2,N/A,,Mostly Cloudy,210,2012-10-14 20:35:00
4:55 PM,69.8,53.6,56,29.57,10.0,SSW,32.2,40.3,N/A,,Scattered Clouds,210,2012-10-14 20:55:00
5:15 PM,69.8,53.6,56,29.57,10.0,SSW,23.0,32.2,N/A,,Scattered Clouds,210,2012-10-14 21:15:00
5:35 PM,69.8,53.6,56,29.56,10.0,SSW,25.3,33.4,N/A,,Mostly Cloudy,210,2012-10-14 21:35:00
5:55 PM,68.0,53.6,60,29.55,10.0,SSW,28.8,36.8,N/A,,Mostly Cloudy,210,2012-10-14 21:55:00
6:15 PM,68.0,53.6,60,29.54,10.0,SSW,21.9,32.2,N/A,,Overcast,200,2012-10-14 22:15:00
6:35 PM,62.6,55.4,77,29.58,3.0,WSW,27.6,39.1,0.07,Rain,Heavy Rain,240,2012-10-14 22:35:00
6:55 PM,60.8,59.0,94,29.58,10.0,SW,20.7,27.6,0.08,,Overcast,220,2012-10-14 22:55:00
7:15 PM,60.8,57.2,88,29.59,10.0,WSW,26.5,33.4,N/A,,Overcast,250,2012-10-14 23:15:00
7:35 PM,59.0,53.6,82,29.61,10.0,West,27.6,41.4,N/A,,Overcast,270,2012-10-14 23:35:00
7:55 PM,55.4,50.0,82,29.64,10.0,West,29.9,48.3,N/A,,Overcast,270,2012-10-14 23:55:00
8:15 PM,55.4,50.0,82,29.65,10.0,West,36.8,51.8,N/A,,Overcast,260,2012-10-15 00:15:00
8:35 PM,53.6,51.8,94,29.67,5.0,West,24.2,36.8,N/A,,Overcast,270,2012-10-15 00:35:00
8:55 PM,53.6,50.0,88,29.69,10.0,West,24.2,43.7,N/A,,Overcast,270,2012-10-15 00:55:00
9:15 PM,51.8,48.2,88,29.70,10.0,West,24.2,34.5,N/A,,Overcast,280,2012-10-15 01:15:00
9:35 PM,51.8,48.2,88,29.71,10.0,West,20.7,29.9,N/A,,Overcast,280,2012-10-15 01:35:00
9:55 PM,51.8,48.2,88,29.72,10.0,West,19.6,26.5,N/A,,Overcast,270,2012-10-15 01:55:00
10:15 PM,51.8,48.2,88,29.74,10.0,West,15.0,27.6,N/A,,Overcast,280,2012-10-15 02:15:00
10:35 PM,51.8,46.4,82,29.74,10.0,WNW,18.4,31.1,N/A,,Overcast,290,2012-10-15 02:35:00
10:55 PM,51.8,46.4,82,29.75,10.0,West,15.0,20.7,N/A,,Overcast,270,2012-10-15 02:55:00
11:15 PM,51.8,46.4,82,29.77,10.0,West,16.1,20.7,N/A,,Overcast,270,2012-10-15 03:15:00
11:35 PM,51.8,46.4,82,29.78,10.0,West,18.4,24.2,N/A,,Overcast,270,2012-10-15 03:35:00
11:55 PM,51.8,46.4,82,29.80,10.0,West,9.2,23.0,N/A,,Overcast,280,2012-10-15 03:55:00